createdAt,value
2018-11-12T00:25:02.114Z,32.1
2018-11-12T00:25:51.009Z,32.6
2018-11-12T00:26:40.711Z,33
2018-11-12T00:27:31.222Z,33.4
2018-11-12T00:28:20.434Z,33.7
2018-11-12T00:29:12.519Z,33.9
2018-11-12T00:30:02.696Z,34.2
2018-11-12T00:30:51.927Z,34.4
2018-11-12T00:31:42.329Z,34.6
2018-11-12T00:32:32.031Z,34.8
2018-11-12T00:33:21.046Z,34.9
2018-11-12T00:34:10.252Z,35.1
2018-11-12T00:35:01.282Z,35.3
2018-11-12T00:35:50.456Z,35.4
2018-11-12T00:36:40.039Z,35.5
2018-11-12T00:37:30.316Z,35.6
2018-11-12T00:38:20.719Z,35.8
2018-11-12T00:39:11.801Z,35.8
2018-11-12T00:40:03.759Z,35.9
2018-11-12T00:40:52.231Z,36
2018-11-12T00:41:41.945Z,36.1
2018-11-12T00:42:32.304Z,36.1
2018-11-12T00:43:22.698Z,36.2
2018-11-12T00:44:12.740Z,36.3
2018-11-12T00:45:02.083Z,36.3
2018-11-12T00:45:53.021Z,36.4
2018-11-12T00:46:42.551Z,36.4
2018-11-12T00:47:33.242Z,36.4
2018-11-12T00:48:21.443Z,36.4
2018-11-12T00:49:13.140Z,36.5
2018-11-12T00:50:02.879Z,36.6
2018-11-12T00:50:52.555Z,36.6
2018-11-12T00:51:41.900Z,35.4
2018-11-12T00:52:31.953Z,34.8
2018-11-12T00:53:22.743Z,34.1
2018-11-12T00:54:11.473Z,33.4
2018-11-12T00:55:03.328Z,32.8
2018-11-12T00:55:53.817Z,31.9
2018-11-12T00:56:42.568Z,31.3
2018-11-12T00:57:32.733Z,30.8
2018-11-12T00:58:23.162Z,30.3
2018-11-12T00:59:12.245Z,29.9
2018-11-12T01:00:02.992Z,29.6
2018-11-12T01:00:56.159Z,29.4
2018-11-12T01:01:42.459Z,29.4
2018-11-12T01:02:33.347Z,29.3
2018-11-12T01:03:22.285Z,29.3
2018-11-12T01:04:15.441Z,29.1
2018-11-12T01:05:03.445Z,29.1
2018-11-12T01:05:54.242Z,28.9
2018-11-12T01:06:44.059Z,28.9
2018-11-12T01:07:34.202Z,28.8
2018-11-12T01:08:24.425Z,28.7
2018-11-12T01:09:13.332Z,28.6
2018-11-12T01:10:03.700Z,28.6
2018-11-12T01:10:53.549Z,28.5
2018-11-12T01:11:43.394Z,28.3
2018-11-12T01:12:33.473Z,29.3
2018-11-12T01:13:22.817Z,30.1
2018-11-12T01:14:13.756Z,30.8
2018-11-12T01:15:03.885Z,31.4
2018-11-12T01:15:54.162Z,31.9
2018-11-12T01:16:44.535Z,32.3
2018-11-12T01:17:34.087Z,32.7
2018-11-12T01:18:23.609Z,33.1
2018-11-12T01:19:13.543Z,33.3
2018-11-12T01:20:04.934Z,33.6
2018-11-12T01:20:55.492Z,33.8
2018-11-12T01:21:44.756Z,34.1
2018-11-12T01:22:33.871Z,34.2
2018-11-12T01:23:24.158Z,34.4
2018-11-12T01:24:13.373Z,34.5
2018-11-12T01:25:05.051Z,34.6
2018-11-12T01:25:55.393Z,34.8
2018-11-12T01:26:45.553Z,34.9
2018-11-12T01:27:34.813Z,34.9
2018-11-12T01:28:24.318Z,35.1
2018-11-12T01:29:15.523Z,34.7
2018-11-12T01:30:04.491Z,33.6
2018-11-12T01:30:55.990Z,31.6
2018-11-12T01:31:46.213Z,30.1
2018-11-12T01:32:35.389Z,28.7
2018-11-12T01:33:25.998Z,27.3
2018-11-12T01:34:16.540Z,25.7
2018-11-12T01:35:06.172Z,24
2018-11-12T01:35:55.306Z,22.4
2018-11-12T01:36:46.593Z,22.7
2018-11-12T01:37:36.402Z,23
2018-11-12T01:38:27.160Z,25.3
2018-11-12T01:39:16.597Z,27.3
2018-11-12T01:40:05.813Z,29
2018-11-12T01:40:55.916Z,30.3
2018-11-12T01:41:47.218Z,31.2
2018-11-12T01:42:35.813Z,31.9
2018-11-12T01:43:26.257Z,32.5
2018-11-12T01:44:17.304Z,33.1
2018-11-12T01:45:06.377Z,33.6
2018-11-12T01:45:56.447Z,33.9
2018-11-12T01:46:46.342Z,34.3
2018-11-12T01:47:37.339Z,34.6
2018-11-12T01:48:27.043Z,34.9
2018-11-12T01:49:17.291Z,35.1
2018-11-12T01:50:06.725Z,35.3
2018-11-12T01:50:56.517Z,35.5
2018-11-12T01:51:47.499Z,35.7
2018-11-12T01:52:37.473Z,35.9
2018-11-12T01:53:26.967Z,36
2018-11-12T01:54:16.994Z,36.1
2018-11-12T01:55:07.454Z,36.3
2018-11-12T01:55:57.992Z,36.4
2018-11-12T01:56:47.062Z,36.5
2018-11-12T01:57:37.892Z,36.6
2018-11-12T01:58:28.173Z,36.7
2018-11-12T01:59:17.002Z,36.6
2018-11-12T02:00:07.665Z,35.4
2018-11-12T02:00:58.380Z,34.8
2018-11-12T02:01:49.606Z,34
2018-11-12T02:02:37.084Z,33.3
2018-11-12T02:03:28.554Z,32.6
2018-11-12T02:04:18.180Z,31.8
2018-11-12T02:05:09.131Z,31.1
2018-11-12T02:05:58.624Z,30.6
2018-11-12T02:06:48.754Z,30.1
2018-11-12T02:07:38.256Z,29.8
2018-11-12T02:08:28.170Z,29.5
2018-11-12T02:09:18.834Z,29.2
2018-11-12T02:10:08.359Z,29.4
2018-11-12T02:10:58.763Z,29.4
2018-11-12T02:11:47.661Z,29.4
2018-11-12T02:12:37.943Z,29.4
2018-11-12T02:13:29.336Z,29.4
2018-11-12T02:14:17.642Z,29.3
2018-11-12T02:15:09.120Z,29.2
2018-11-12T02:15:58.155Z,29.1
2018-11-12T02:16:49.283Z,29
2018-11-12T02:17:38.830Z,28.9
2018-11-12T02:18:27.005Z,28.8
2018-11-12T02:19:19.708Z,28.4
2018-11-12T02:20:07.785Z,29.1
2018-11-12T02:20:59.300Z,30.1
2018-11-12T02:21:49.716Z,30.9
2018-11-12T02:22:39.747Z,31.5
2018-11-12T02:23:28.292Z,32.1
2018-11-12T02:24:18.958Z,32.6
2018-11-12T02:25:09.230Z,33
2018-11-12T02:25:59.469Z,33.4
2018-11-12T02:26:48.760Z,33.7
2018-11-12T02:27:40.685Z,34
2018-11-12T02:28:29.829Z,34.3
2018-11-12T02:29:19.700Z,34.6
2018-11-12T02:30:10.844Z,34.8
2018-11-12T02:30:59.917Z,35
2018-11-12T02:31:50.147Z,35.2
2018-11-12T02:32:40.079Z,35.4
2018-11-12T02:33:32.655Z,35.5
2018-11-12T02:34:19.280Z,35.7
2018-11-12T02:35:10.067Z,35.8
2018-11-12T02:35:59.955Z,35.9
2018-11-12T02:36:50.719Z,36
2018-11-12T02:37:41.878Z,36.1
2018-11-12T02:38:30.866Z,36.2
2018-11-12T02:39:20.953Z,36.3
2018-11-12T02:40:10.381Z,36.4
2018-11-12T02:41:01.122Z,36.4
2018-11-12T02:41:51.391Z,36.5
2018-11-12T02:42:40.862Z,36.6
2018-11-12T02:43:31.255Z,36.5
2018-11-12T02:44:20.449Z,35.4
2018-11-12T02:45:11.533Z,34.7
2018-11-12T02:45:59.996Z,34
2018-11-12T02:46:50.864Z,33.3
2018-11-12T02:47:41.738Z,32.6
2018-11-12T02:48:31.054Z,31.8
2018-11-12T02:49:22.354Z,31.2
2018-11-12T02:50:10.943Z,30.7
2018-11-12T02:51:01.251Z,30.3
2018-11-12T02:51:52.255Z,29.9
2018-11-12T02:52:41.303Z,29.6
2018-11-12T02:53:30.993Z,29.7
2018-11-12T02:54:21.235Z,29.8
2018-11-12T02:55:11.761Z,29.9
2018-11-12T02:56:01.021Z,29.9
2018-11-12T02:56:50.885Z,29.9
2018-11-12T02:57:43.179Z,29.8
2018-11-12T02:58:32.510Z,29.7
2018-11-12T02:59:21.833Z,29.6
2018-11-12T03:00:13.057Z,29.5
2018-11-12T03:01:01.713Z,29.4
2018-11-12T03:01:52.715Z,29.3
2018-11-12T03:02:41.988Z,29.1
2018-11-12T03:03:32.737Z,28.8
2018-11-12T03:04:21.033Z,29.1
2018-11-12T03:05:13.288Z,30.1
2018-11-12T03:06:02.025Z,30.9
2018-11-12T03:06:52.637Z,31.5
2018-11-12T03:07:43.907Z,32.1
2018-11-12T03:08:33.566Z,32.6
2018-11-12T03:09:22.782Z,32.9
2018-11-12T03:10:13.393Z,33.3
2018-11-12T03:11:02.082Z,33.6
2018-11-12T03:11:52.945Z,33.9
2018-11-12T03:12:43.123Z,34.2
2018-11-12T03:13:32.046Z,34.4
2018-11-12T03:14:23.021Z,34.6
2018-11-12T03:15:12.657Z,34.8
2018-11-12T03:16:03.841Z,35
2018-11-12T03:16:52.892Z,35.1
2018-11-12T03:17:43.399Z,35.3
2018-11-12T03:18:33.739Z,35.4
2018-11-12T03:19:23.033Z,35.5
2018-11-12T03:20:12.125Z,35.6
2018-11-12T03:21:03.983Z,35.7
2018-11-12T03:21:53.337Z,35.8
2018-11-12T03:22:44.004Z,35.9
2018-11-12T03:23:33.582Z,35.9
2018-11-12T03:24:23.299Z,36
2018-11-12T03:25:14.164Z,36.1
2018-11-12T03:26:03.805Z,36.1
2018-11-12T03:26:54.262Z,36.2
2018-11-12T03:27:46.768Z,36.2
2018-11-12T03:28:34.391Z,36.3
2018-11-12T03:29:24.416Z,36.3
2018-11-12T03:30:14.387Z,36.3
2018-11-12T03:31:03.940Z,36.4
2018-11-12T03:31:54.001Z,36.4
2018-11-12T03:32:44.756Z,36.4
2018-11-12T03:33:34.424Z,35.3
2018-11-12T03:34:25.421Z,34.6
2018-11-12T03:35:15.414Z,34
2018-11-12T03:36:04.796Z,33.3
2018-11-12T03:36:54.565Z,32.6
2018-11-12T03:37:43.743Z,31.9
2018-11-12T03:38:33.636Z,31.3
2018-11-12T03:39:26.204Z,30.8
2018-11-12T03:40:14.408Z,30.4
2018-11-12T03:41:04.761Z,30
2018-11-12T03:41:54.526Z,29.7
2018-11-12T03:42:44.849Z,29.5
2018-11-12T03:43:35.108Z,29.6
2018-11-12T03:44:25.361Z,29.8
2018-11-12T03:45:15.118Z,29.8
2018-11-12T03:46:05.470Z,29.8
2018-11-12T03:46:55.335Z,29.8
2018-11-12T03:47:46.329Z,29.7
2018-11-12T03:48:36.720Z,29.6
2018-11-12T03:49:25.125Z,29.5
2018-11-12T03:50:15.827Z,29.4
2018-11-12T03:51:06.243Z,29.3
2018-11-12T03:51:56.340Z,29.1
2018-11-12T03:52:45.693Z,29
2018-11-12T03:53:35.828Z,28.6
2018-11-12T03:54:26.067Z,29.4
2018-11-12T03:55:16.342Z,30.3
2018-11-12T03:56:06.093Z,30.9
2018-11-12T03:56:56.732Z,31.5
2018-11-12T03:57:45.864Z,32
2018-11-12T03:58:36.107Z,32.4
2018-11-12T03:59:26.268Z,32.8
2018-11-12T04:00:19.056Z,33.1
2018-11-12T04:01:05.178Z,33.4
2018-11-12T04:01:56.227Z,33.6
2018-11-12T04:02:47.066Z,33.9
2018-11-12T04:03:36.724Z,34.1
2018-11-12T04:04:27.345Z,34.3
2018-11-12T04:05:17.275Z,34.4
2018-11-12T04:06:06.596Z,34.6
2018-11-12T04:06:57.751Z,34.6
2018-11-12T04:07:47.835Z,34.8
2018-11-12T04:08:37.485Z,34.9
2018-11-12T04:09:27.607Z,35
2018-11-12T04:10:17.571Z,35.1
2018-11-12T04:11:06.775Z,35.1
2018-11-12T04:11:56.688Z,35.3
2018-11-12T04:12:47.644Z,35.3
2018-11-12T04:13:37.681Z,35.3
2018-11-12T04:14:27.690Z,35.4
2018-11-12T04:15:18.014Z,35.4
2018-11-12T04:16:08.151Z,35.4
2018-11-12T04:16:57.684Z,35.5
2018-11-12T04:17:48.075Z,35.5
2018-11-12T04:18:38.003Z,35.5
2018-11-12T04:19:26.724Z,35.6
2018-11-12T04:20:17.527Z,35.6
2018-11-12T04:21:07.955Z,34.7
2018-11-12T04:21:57.902Z,33.5
2018-11-12T04:22:47.590Z,31.4
2018-11-12T04:23:37.511Z,30.1
2018-11-12T04:24:28.105Z,28.8
2018-11-12T04:25:19.151Z,27.1
2018-11-12T04:26:07.731Z,25.6
2018-11-12T04:26:58.661Z,23.9
2018-11-12T04:27:48.420Z,22.9
2018-11-12T04:28:38.748Z,23.2
2018-11-12T04:29:27.868Z,24.3
2018-11-12T04:30:18.833Z,26.4
2018-11-12T04:31:08.563Z,28.3
2018-11-12T04:31:59.022Z,29.8
2018-11-12T04:32:49.133Z,30.9
2018-11-12T04:33:38.972Z,31.8
2018-11-12T04:34:27.933Z,32.4
2018-11-12T04:35:19.153Z,32.9
2018-11-12T04:36:08.626Z,33.4
2018-11-12T04:54:17.342Z,32.9
2018-11-12T04:55:08.897Z,32.1
2018-11-12T04:55:58.167Z,31.4
2018-11-12T04:56:48.495Z,30.9
2018-11-12T04:57:37.623Z,30.4
2018-11-12T04:58:27.744Z,30.1
2018-11-12T04:59:19.441Z,29.8
2018-11-12T05:00:08.514Z,29.7
2018-11-12T05:00:58.359Z,29.9
2018-11-12T05:01:49.196Z,29.9
2018-11-12T05:02:38.211Z,30
2018-11-12T05:03:28.175Z,29.9
2018-11-12T05:04:18.722Z,29.9
2018-11-12T05:05:09.006Z,29.8
2018-11-12T05:05:59.162Z,29.7
2018-11-12T05:06:49.006Z,29.6
2018-11-12T05:07:41.900Z,29.4
2018-11-12T05:08:27.776Z,29.3
2018-11-12T05:09:18.589Z,29.2
2018-11-12T05:10:08.189Z,29
2018-11-12T05:10:58.658Z,28.7
2018-11-12T05:11:49.603Z,29.6
2018-11-12T05:12:40.160Z,30.5
2018-11-12T05:13:29.448Z,31.3
2018-11-12T05:14:19.231Z,31.8
2018-11-12T05:15:09.096Z,32.3
2018-11-12T05:15:59.898Z,32.8
2018-11-12T05:16:51.275Z,33.1
2018-11-12T05:17:38.931Z,33.6
2018-11-12T05:18:29.278Z,33.9
2018-11-12T05:19:19.518Z,34.1
2018-11-12T05:20:10.778Z,34.4
2018-11-12T05:20:59.838Z,34.6
2018-11-12T05:21:51.110Z,34.8
2018-11-12T05:22:39.160Z,35
2018-11-12T05:23:29.560Z,35.2
2018-11-12T05:24:21.004Z,35.4
2018-11-12T05:25:10.117Z,35.5
2018-11-12T05:26:00.795Z,35.7
2018-11-12T05:26:49.817Z,35.9
2018-11-12T05:27:40.200Z,35.9
2018-11-12T05:28:31.072Z,36.1
2018-11-12T05:29:21.041Z,36.2
2018-11-12T05:30:11.077Z,36.3
2018-11-12T05:31:00.021Z,36.3
2018-11-12T05:31:49.655Z,36.4
2018-11-12T05:32:40.449Z,36.5
2018-11-12T05:33:29.710Z,36.6
2018-11-12T05:34:20.402Z,36.6
2018-11-12T05:35:11.015Z,35.5
2018-11-12T05:36:01.123Z,34.8
2018-11-12T05:36:50.582Z,34.2
2018-11-12T05:37:41.440Z,33.5
2018-11-12T05:38:33.202Z,32.8
2018-11-12T05:39:21.299Z,32.1
2018-11-12T05:40:11.607Z,31.4
2018-11-12T05:41:01.181Z,30.9
2018-11-12T05:41:51.894Z,30.4
2018-11-12T05:42:40.926Z,30.1
2018-11-12T05:43:31.861Z,29.8
2018-11-12T05:44:21.135Z,29.6
2018-11-12T05:45:13.311Z,29.7
2018-11-12T05:46:01.419Z,29.8
2018-11-12T05:46:50.929Z,29.9
2018-11-12T05:47:41.014Z,29.9
2018-11-12T05:48:32.446Z,29.9
2018-11-12T05:49:21.726Z,29.8
2018-11-12T05:50:12.926Z,29.7
2018-11-12T05:51:02.717Z,29.6
2018-11-12T05:51:52.921Z,29.4
2018-11-12T05:52:42.055Z,29.3
2018-11-12T05:53:32.708Z,29.2
2018-11-12T05:54:22.869Z,28.9
2018-11-12T05:55:11.849Z,28.9
2018-11-12T05:56:03.566Z,29.9
2018-11-12T05:56:52.448Z,30.8
2018-11-12T05:57:41.965Z,31.4
2018-11-12T05:58:32.215Z,31.9
2018-11-12T05:59:22.423Z,32.4
2018-11-12T06:00:12.213Z,32.8
2018-11-12T06:01:01.976Z,33.2
2018-11-12T06:01:52.925Z,33.5
2018-11-12T06:02:42.141Z,33.8
2018-11-12T06:03:32.962Z,34.1
2018-11-12T06:04:22.298Z,34.4
2018-11-12T06:05:12.978Z,34.6
2018-11-12T06:06:03.696Z,34.8
2018-11-12T06:06:52.516Z,34.9
2018-11-12T06:07:42.550Z,35.1
2018-11-12T06:08:33.699Z,35.3
2018-11-12T06:09:23.046Z,35.4
2018-11-12T06:10:12.620Z,35.5
2018-11-12T06:11:03.619Z,35.6
2018-11-12T06:11:53.353Z,35.8
2018-11-12T06:12:43.538Z,35.8
2018-11-12T06:13:33.450Z,35.9
2018-11-12T06:14:24.877Z,36
2018-11-12T06:15:13.037Z,36.1
2018-11-12T06:16:03.840Z,36.1
2018-11-12T06:16:53.473Z,36.2
2018-11-12T06:17:44.302Z,36.3
2018-11-12T06:18:33.403Z,36.3
2018-11-12T06:19:22.999Z,36.4
2018-11-12T06:20:14.161Z,36.4
2018-11-12T06:21:03.454Z,36.5
2018-11-12T06:21:54.279Z,35.6
2018-11-12T06:22:44.233Z,34.9
2018-11-12T06:23:33.536Z,34.3
2018-11-12T06:24:24.417Z,33.6
2018-11-12T06:25:13.999Z,32.9
2018-11-12T06:26:04.941Z,32.2
2018-11-12T06:26:54.881Z,31.6
2018-11-12T06:27:45.379Z,31
2018-11-12T06:28:35.239Z,30.6
2018-11-12T06:29:24.767Z,30.2
2018-11-12T06:30:14.389Z,29.9
2018-11-12T06:31:04.960Z,29.7
2018-11-12T06:31:54.766Z,29.8
2018-11-12T06:32:44.627Z,29.9
2018-11-12T06:33:34.298Z,29.9
2018-11-12T06:34:25.304Z,29.9
2018-11-12T06:35:14.301Z,29.9
2018-11-12T06:36:05.801Z,29.8
2018-11-12T06:36:57.572Z,29.8
2018-11-12T06:37:45.381Z,29.6
2018-11-12T06:38:35.566Z,29.5
2018-11-12T06:39:24.991Z,29.4
2018-11-12T06:40:15.893Z,29.3
2018-11-12T06:41:05.548Z,29.2
2018-11-12T06:41:55.985Z,28.6
2018-11-12T06:42:47.003Z,29.6
2018-11-12T06:43:36.429Z,30.5
2018-11-12T06:44:25.850Z,31.2
2018-11-12T06:45:16.075Z,31.8
2018-11-12T06:46:06.426Z,32.4
2018-11-12T06:46:54.181Z,32.8
2018-11-12T06:47:45.622Z,33.2
2018-11-12T06:48:34.910Z,32.6
2018-11-12T06:49:27.817Z,32.3
2018-11-12T06:50:14.923Z,31.8
2018-11-12T06:51:04.725Z,31.1
2018-11-12T06:51:56.072Z,30.4
2018-11-12T06:52:45.589Z,29.8
2018-11-12T06:53:37.503Z,29.4
2018-11-12T06:54:25.806Z,29
2018-11-12T06:55:16.792Z,28.8
2018-11-12T06:56:06.874Z,28.6
2018-11-12T06:56:56.767Z,28.4
2018-11-12T06:57:46.805Z,28.3
2018-11-12T06:58:36.011Z,28.3
2018-11-12T06:59:28.131Z,28.3
2018-11-12T07:00:17.005Z,28.2
2018-11-12T07:01:07.515Z,28.2
2018-11-12T07:01:57.695Z,28.1
2018-11-12T07:02:46.462Z,28
2018-11-12T07:03:35.812Z,27.9
2018-11-12T07:05:16.427Z,27.7
2018-11-12T07:06:06.511Z,27.6
2018-11-12T07:06:58.118Z,27.5
2018-11-12T07:07:47.889Z,27.4
2018-11-12T07:08:37.066Z,26.9
2018-11-12T07:09:27.477Z,26.6
2018-11-12T07:10:16.633Z,26.4
2018-11-12T07:11:07.731Z,26.3
2018-11-12T07:11:58.937Z,26.1
2018-11-12T07:12:47.762Z,26
2018-11-12T07:13:38.203Z,25.9
2018-11-12T07:14:26.808Z,25.8
2018-11-12T07:15:17.339Z,25.7
2018-11-12T07:16:08.157Z,25.6
2018-11-12T07:16:58.527Z,25.5
2018-11-12T07:17:47.120Z,25.4
2018-11-12T07:18:37.618Z,25.4
2018-11-12T07:19:27.785Z,25.3
2018-11-12T07:20:18.024Z,25.3
2018-11-12T07:21:08.752Z,25.2
2018-11-12T07:21:57.867Z,25.1
2018-11-12T07:22:48.464Z,25
2018-11-12T07:23:39.678Z,24.9
2018-11-12T07:24:27.707Z,24.9
2018-11-12T07:25:19.947Z,24.8
2018-11-12T07:26:08.582Z,24.8
2018-11-12T07:26:58.775Z,24.8
2018-11-12T07:27:48.390Z,24.7
2018-11-12T07:28:39.104Z,24.6
2018-11-12T07:29:28.539Z,24.6
2018-11-12T07:30:18.622Z,24.4
2018-11-12T07:31:09.707Z,24.4
2018-11-12T07:31:58.851Z,24.4
2018-11-12T07:32:49.333Z,24.3
2018-11-12T07:33:38.489Z,24.3
2018-11-12T07:34:28.812Z,24.3
2018-11-12T07:35:18.601Z,24.2
2018-11-12T07:36:08.589Z,24.1
2018-11-12T07:36:59.729Z,24.1
2018-11-12T07:37:49.546Z,24.1
2018-11-12T07:38:39.288Z,24.1
2018-11-12T07:39:29.825Z,24
2018-11-12T07:40:18.938Z,23.9
2018-11-12T07:41:09.831Z,23.9
2018-11-12T07:42:01.050Z,23.9
2018-11-12T07:42:48.938Z,23.8
2018-11-12T07:43:40.489Z,23.8
2018-11-12T07:44:28.084Z,23.8
2018-11-12T07:45:19.254Z,23.8
2018-11-12T07:46:09.857Z,23.7
2018-11-12T07:46:58.953Z,23.7
2018-11-12T07:47:49.894Z,23.6
2018-11-12T07:48:41.306Z,23.6
2018-11-12T07:49:29.806Z,23.6
2018-11-12T07:50:19.199Z,23.6
2018-11-12T07:51:10.898Z,23.6
2018-11-12T07:52:00.186Z,23.5
2018-11-12T07:52:49.770Z,23.5
2018-11-12T07:53:41.458Z,23.4
2018-11-12T07:54:31.798Z,23.4
2018-11-12T07:55:19.411Z,23.4
2018-11-12T07:56:11.680Z,23.4
2018-11-12T07:56:59.533Z,23.3
2018-11-12T07:57:51.320Z,23.3
2018-11-12T07:58:40.068Z,23.3
2018-11-12T07:59:31.582Z,23.3
2018-11-12T08:00:20.463Z,23.3
2018-11-12T08:01:11.860Z,23.2
2018-11-12T08:02:01.490Z,23.2
2018-11-12T08:02:50.301Z,23.2
2018-11-12T08:03:58.515Z,23.1
2018-11-12T08:04:32.120Z,23.1
2018-11-12T08:05:22.188Z,23.1
2018-11-12T08:06:10.885Z,23.1
2018-11-12T08:07:02.257Z,23.1
2018-11-12T08:07:51.669Z,23
2018-11-12T08:08:42.097Z,23
2018-11-12T08:09:33.450Z,23
2018-11-12T08:10:21.227Z,22.9
2018-11-12T08:11:10.679Z,22.9
2018-11-12T08:12:03.858Z,22.9
2018-11-12T08:12:51.427Z,22.9
2018-11-12T08:13:40.529Z,22.9
2018-11-12T08:14:33.909Z,22.9
2018-11-12T08:15:21.850Z,22.9
2018-11-12T08:16:11.198Z,22.8
2018-11-12T08:17:02.096Z,22.8
2018-11-12T08:17:54.451Z,22.8
2018-11-12T08:18:41.442Z,22.8
2018-11-12T08:19:29.999Z,22.7
2018-11-12T08:20:22.238Z,22.7
2018-11-12T08:21:11.806Z,22.7
2018-11-12T08:22:02.612Z,22.7
2018-11-12T08:22:53.301Z,22.6
2018-11-12T08:23:42.693Z,22.6
2018-11-12T08:24:34.567Z,22.6
2018-11-12T08:25:22.611Z,22.6
2018-11-12T08:26:13.253Z,22.6
2018-11-12T08:27:02.441Z,22.6
2018-11-12T08:27:52.601Z,22.6
2018-11-12T08:28:42.245Z,22.5
2018-11-12T08:29:32.923Z,22.5
2018-11-12T08:30:23.489Z,22.4
2018-11-12T08:31:13.253Z,22.4
2018-11-12T08:32:03.254Z,22.4
2018-11-12T08:32:52.956Z,22.4
2018-11-12T08:33:42.469Z,22.4
2018-11-12T08:34:33.420Z,22.4
2018-11-12T08:35:22.755Z,22.4
2018-11-12T08:36:14.751Z,22.4
2018-11-12T08:37:02.505Z,22.4
2018-11-12T08:37:54.105Z,22.3
2018-11-12T08:38:42.947Z,22.3
2018-11-12T08:39:35.915Z,22.3
2018-11-12T08:40:24.863Z,22.3
2018-11-12T08:41:14.890Z,22.3
2018-11-12T08:42:03.235Z,22.3
2018-11-12T08:42:55.547Z,22.3
2018-11-12T08:43:44.205Z,22.3
2018-11-12T08:44:32.323Z,22.3
2018-11-12T08:45:24.370Z,22.3
2018-11-12T08:46:14.936Z,22.3
2018-11-12T08:47:03.215Z,22.2
2018-11-12T08:47:53.525Z,22.2
2018-11-12T08:48:43.827Z,22.2
2018-11-12T08:49:38.733Z,22.2
2018-11-12T08:50:24.180Z,22.2
2018-11-12T08:51:15.187Z,22.2
2018-11-12T08:52:04.681Z,22.1
2018-11-12T09:08:48.186Z,22
2018-11-12T09:09:37.640Z,21.9
2018-11-12T09:10:28.264Z,22
2018-11-12T09:11:17.598Z,21.9
2018-11-12T09:12:07.829Z,21.9
2018-11-12T09:12:58.418Z,21.9
2018-11-12T09:13:51.806Z,21.9
2018-11-12T09:14:38.765Z,21.9
2018-11-12T09:15:27.685Z,21.9
2018-11-12T09:16:18.399Z,21.9
2018-11-12T09:17:07.611Z,21.9
2018-11-12T09:17:58.203Z,21.9
2018-11-12T09:18:48.505Z,21.9
2018-11-12T09:19:38.916Z,21.9
2018-11-12T09:20:29.473Z,21.9
2018-11-12T09:21:17.382Z,21.9
2018-11-12T09:22:08.268Z,21.9
2018-11-12T09:22:59.678Z,21.9
2018-11-12T09:23:49.275Z,21.9
2018-11-12T09:24:39.388Z,21.8
2018-11-12T09:25:29.033Z,21.8
2018-11-12T09:26:19.757Z,21.8
2018-11-12T09:27:07.393Z,21.8
2018-11-12T09:27:57.590Z,21.8
2018-11-12T09:28:47.415Z,21.8
2018-11-12T09:29:38.885Z,21.8
2018-11-12T09:30:29.955Z,21.8
2018-11-12T09:31:34.026Z,21.8
2018-11-12T09:32:09.840Z,21.8
2018-11-12T09:33:00.778Z,21.8
2018-11-12T09:33:49.957Z,21.8
2018-11-12T09:34:41.245Z,21.8
2018-11-12T09:35:30.859Z,21.7
2018-11-12T09:37:10.232Z,21.7
2018-11-12T09:38:01.089Z,21.7
2018-11-12T09:38:50.364Z,21.7
2018-11-12T09:39:40.759Z,21.7
2018-11-12T09:40:30.924Z,21.7
2018-11-12T09:41:20.109Z,21.7
2018-11-12T09:42:11.262Z,21.7
2018-11-12T09:43:01.494Z,21.7
2018-11-12T09:43:50.499Z,21.7
2018-11-12T09:44:41.476Z,21.7
2018-11-12T09:45:30.756Z,21.6
2018-11-12T09:46:22.162Z,21.6
2018-11-12T09:47:10.151Z,21.6
2018-11-12T09:48:03.656Z,21.6
2018-11-12T09:48:52.922Z,21.6
2018-11-12T09:49:42.084Z,21.6
2018-11-12T09:50:31.291Z,21.6
2018-11-12T09:51:20.957Z,21.6
2018-11-12T09:52:10.729Z,21.6
2018-11-12T09:53:01.007Z,21.6
2018-11-12T09:53:54.300Z,21.6
2018-11-12T09:54:46.416Z,21.6
2018-11-12T09:55:30.941Z,21.6
2018-11-12T09:56:23.039Z,21.6
2018-11-12T09:57:12.631Z,21.5
2018-11-12T09:58:02.276Z,21.5
2018-11-12T09:58:51.551Z,21.6
2018-11-12T09:59:42.164Z,21.5
2018-11-12T10:00:37.575Z,21.5
2018-11-12T10:01:29.634Z,21.6
2018-11-12T10:02:27.942Z,21.5
2018-11-12T10:03:21.157Z,21.5
2018-11-12T10:04:13.250Z,21.5
2018-11-12T10:05:03.942Z,21.4
2018-11-12T10:05:44.098Z,21.5
2018-11-12T10:06:56.063Z,21.4
2018-11-12T10:07:47.566Z,21.4
2018-11-12T10:08:23.952Z,21.4
2018-11-12T10:09:14.474Z,21.4
2018-11-12T10:10:33.091Z,21.4
2018-11-12T10:11:26.049Z,21.4
2018-11-12T10:12:21.386Z,21.4
2018-11-12T10:13:27.084Z,21.4
2018-11-12T10:14:28.877Z,21.4
2018-11-12T10:15:23.572Z,21.4
2018-11-12T10:16:22.896Z,21.4
2018-11-12T10:17:38.360Z,21.4
2018-11-12T10:18:16.697Z,21.3
2018-11-12T10:18:36.090Z,21.4
2018-11-12T10:19:25.967Z,21.4
2018-11-12T10:20:17.429Z,21.3
2018-11-12T10:21:05.342Z,21.4
2018-11-12T10:21:56.676Z,21.4
2018-11-12T10:22:45.744Z,21.3
2018-11-12T10:23:36.726Z,21.3
2018-11-12T10:24:24.964Z,21.3
2018-11-12T10:25:16.516Z,21.3
2018-11-12T10:26:05.556Z,21.3
2018-11-12T10:26:55.437Z,21.3
2018-11-12T10:27:46.081Z,21.3
2018-11-12T10:28:36.597Z,21.3
2018-11-12T10:29:26.063Z,21.3
2018-11-12T10:30:16.706Z,21.3
2018-11-12T10:31:06.561Z,21.3
2018-11-12T10:31:56.464Z,21.3
2018-11-12T10:32:46.806Z,21.3
2018-11-12T10:33:38.093Z,21.3
2018-11-12T10:34:26.324Z,21.3
2018-11-12T10:35:16.126Z,21.3
2018-11-12T10:36:06.660Z,21.3
2018-11-12T10:36:57.248Z,21.3
2018-11-12T10:37:46.771Z,21.3
2018-11-12T10:38:36.466Z,21.3
2018-11-12T10:39:26.334Z,21.2
2018-11-12T10:40:17.672Z,21.3
2018-11-12T10:41:08.167Z,21.2
2018-11-12T10:41:57.921Z,21.3
2018-11-12T10:42:50.331Z,21.3
2018-11-12T10:43:38.196Z,21.2
2018-11-12T10:44:27.338Z,21.2
2018-11-12T10:45:17.239Z,21.2
2018-11-12T10:46:07.853Z,21.2
2018-11-12T10:46:57.563Z,21.2
2018-11-12T10:47:48.699Z,21.2
2018-11-12T10:48:38.662Z,21.2
2018-11-12T10:49:28.530Z,21.2
2018-11-12T10:50:17.775Z,21.2
2018-11-12T10:57:48.829Z,21.1
2018-11-12T10:59:28.857Z,21.1
2018-11-12T11:00:20.404Z,21.1
2018-11-12T11:01:08.235Z,21.1
2018-11-12T11:01:58.985Z,21.1
2018-11-12T11:02:48.424Z,21.1
2018-11-12T11:03:39.601Z,21.1
2018-11-12T11:04:30.244Z,21.1
2018-11-12T11:05:18.806Z,21
2018-11-12T11:06:07.680Z,21
2018-11-12T11:07:00.094Z,21
2018-11-12T11:07:49.384Z,21
2018-11-12T11:08:39.541Z,21
2018-11-12T11:09:30.216Z,21
2018-11-12T11:10:18.827Z,21
2018-11-12T11:11:10.137Z,21
2018-11-12T11:11:59.721Z,20.9
2018-11-12T11:12:50.092Z,21
2018-11-12T11:13:39.952Z,21
2018-11-12T11:14:30.587Z,21
2018-11-12T11:15:21.064Z,20.9
2018-11-12T11:16:09.271Z,21
2018-11-12T11:17:00.494Z,21
2018-11-12T11:17:50.109Z,20.9
2018-11-12T11:18:41.166Z,21
2018-11-12T11:19:31.382Z,21
2018-11-12T11:20:20.184Z,21
2018-11-12T11:21:10.547Z,21
2018-11-12T11:22:01.541Z,21
2018-11-12T11:22:49.926Z,21
2018-11-12T11:23:41.530Z,21
2018-11-12T11:24:31.538Z,21
2018-11-12T11:25:20.158Z,21.1
2018-11-12T11:26:11.368Z,21
2018-11-12T11:27:01.221Z,21.1
2018-11-12T11:27:49.985Z,21
2018-11-12T11:28:42.141Z,21
2018-11-12T11:29:31.353Z,21.1
2018-11-12T11:30:20.001Z,21.1
2018-11-12T11:31:11.391Z,21.1
2018-11-12T11:32:01.167Z,21.1
2018-11-12T11:32:51.526Z,21
2018-11-12T11:33:40.470Z,21.1
2018-11-12T11:34:30.451Z,21.1
2018-11-12T11:35:21.315Z,21
2018-11-12T11:36:11.709Z,21.1
2018-11-12T11:37:01.055Z,21.1
2018-11-12T11:37:51.411Z,21
2018-11-12T11:38:41.212Z,21
2018-11-12T11:39:30.258Z,21.1
2018-11-12T11:40:23.597Z,21.1
2018-11-12T11:41:12.050Z,21.1
2018-11-12T11:42:01.277Z,21.1
2018-11-12T11:42:50.847Z,21
2018-11-12T11:43:41.157Z,21.1
2018-11-12T11:44:30.697Z,21.1
2018-11-12T11:45:21.516Z,21.1
2018-11-12T11:46:11.705Z,21.1
2018-11-12T11:47:01.905Z,21
2018-11-12T11:47:53.627Z,21.1
2018-11-12T11:48:42.591Z,21.1
2018-11-12T11:49:31.952Z,21.1
2018-11-12T11:50:24.559Z,21
2018-11-12T11:51:12.222Z,21.1
2018-11-12T11:52:02.777Z,21.1
2018-11-12T11:52:52.842Z,21.1
2018-11-12T11:53:41.323Z,21.1
2018-11-12T11:54:32.590Z,21
2018-11-12T11:55:22.254Z,21
2018-11-12T11:56:12.810Z,21
2018-11-12T11:57:03.561Z,21
2018-11-12T11:57:54.184Z,21.1
2018-11-12T11:58:42.369Z,21.1
2018-11-12T11:59:32.494Z,21.1
2018-11-12T12:00:23.281Z,21.1
2018-11-12T12:01:15.346Z,21.1
2018-11-12T12:02:02.934Z,21.1
2018-11-12T12:02:53.992Z,21
2018-11-12T12:03:42.214Z,21
2018-11-12T12:04:33.624Z,21.1
2018-11-12T12:05:23.489Z,21.1
2018-11-12T12:06:13.231Z,21.1
2018-11-12T12:07:03.313Z,21.1
2018-11-12T12:07:53.978Z,21
2018-11-12T12:08:44.135Z,21.1
2018-11-12T12:09:34.398Z,21.1
2018-11-12T12:10:24.679Z,21.1
2018-11-12T12:11:14.961Z,21.1
2018-11-12T12:12:04.053Z,21.1
2018-11-12T12:12:55.650Z,21.1
2018-11-12T12:13:43.521Z,21.1
2018-11-12T12:14:34.885Z,21.1
2018-11-12T12:15:24.942Z,21.1
2018-11-12T12:16:14.631Z,21.1
2018-11-12T12:17:03.836Z,21.1
2018-11-12T12:17:54.103Z,21.1
2018-11-12T12:18:45.081Z,21.1